sensor_id;sensor_type;location;lat;lon;timestamp;P1;durP1;ratioP1;P2;durP2;ratioP2
56267;SDS011;42175;46.930;9.532;2023-06-14T00:01:21;8.27;;;5.05;;
56267;SDS011;42175;46.930;9.532;2023-06-14T00:03:47;8.25;;;5.75;;
56267;SDS011;42175;46.930;9.532;2023-06-14T00:06:13;6.97;;;5.07;;
56267;SDS011;42175;46.930;9.532;2023-06-14T00:08:39;6.45;;;4.72;;
56267;SDS011;42175;46.930;9.532;2023-06-14T00:11:05;7.70;;;5.18;;
56267;SDS011;42175;46.930;9.532;2023-06-14T00:13:31;8.98;;;5.68;;
56267;SDS011;42175;46.930;9.532;2023-06-14T00:15:57;7.53;;;5.43;;
56267;SDS011;42175;46.930;9.532;2023-06-14T00:18:23;6.18;;;5.03;;
56267;SDS011;42175;46.930;9.532;2023-06-14T00:20:54;7.95;;;4.85;;
56267;SDS011;42175;46.930;9.532;2023-06-14T00:23:21;8.25;;;5.07;;
56267;SDS011;42175;46.930;9.532;2023-06-14T00:25:46;6.90;;;5.30;;
56267;SDS011;42175;46.930;9.532;2023-06-14T00:28:12;7.10;;;4.95;;
56267;SDS011;42175;46.930;9.532;2023-06-14T00:30:38;6.60;;;4.80;;
56267;SDS011;42175;46.930;9.532;2023-06-14T00:33:04;8.23;;;5.10;;
56267;SDS011;42175;46.930;9.532;2023-06-14T00:35:30;8.23;;;4.45;;
56267;SDS011;42175;46.930;9.532;2023-06-14T00:37:56;7.97;;;4.88;;
56267;SDS011;42175;46.930;9.532;2023-06-14T00:40:22;9.98;;;6.00;;
56267;SDS011;42175;46.930;9.532;2023-06-14T00:42:48;7.18;;;4.88;;
56267;SDS011;42175;46.930;9.532;2023-06-14T00:45:14;7.80;;;4.93;;
56267;SDS011;42175;46.930;9.532;2023-06-14T00:47:40;6.45;;;4.57;;
56267;SDS011;42175;46.930;9.532;2023-06-14T00:50:08;6.85;;;5.18;;
56267;SDS011;42175;46.930;9.532;2023-06-14T00:52:34;7.90;;;6.03;;
56267;SDS011;42175;46.930;9.532;2023-06-14T00:55:01;6.38;;;4.75;;
56267;SDS011;42175;46.930;9.532;2023-06-14T00:57:27;7.03;;;5.30;;
56267;SDS011;42175;46.930;9.532;2023-06-14T00:59:54;6.45;;;5.05;;
56267;SDS011;42175;46.930;9.532;2023-06-14T01:02:20;6.22;;;5.10;;
56267;SDS011;42175;46.930;9.532;2023-06-14T01:04:47;5.53;;;4.85;;
56267;SDS011;42175;46.930;9.532;2023-06-14T01:15:32;6.60;;;4.97;;
56267;SDS011;42175;46.930;9.532;2023-06-14T01:18:00;7.60;;;5.38;;
56267;SDS011;42175;46.930;9.532;2023-06-14T01:20:32;8.35;;;5.15;;
56267;SDS011;42175;46.930;9.532;2023-06-14T01:25:27;5.85;;;4.85;;
56267;SDS011;42175;46.930;9.532;2023-06-14T01:27:59;7.35;;;5.03;;
56267;SDS011;42175;46.930;9.532;2023-06-14T01:30:27;5.82;;;4.80;;
56267;SDS011;42175;46.930;9.532;2023-06-14T01:32:56;6.30;;;4.95;;
56267;SDS011;42175;46.930;9.532;2023-06-14T01:35:23;6.72;;;5.25;;
56267;SDS011;42175;46.930;9.532;2023-06-14T01:37:49;6.85;;;4.90;;
56267;SDS011;42175;46.930;9.532;2023-06-14T01:40:17;6.43;;;4.80;;
56267;SDS011;42175;46.930;9.532;2023-06-14T01:42:46;10.52;;;4.97;;
56267;SDS011;42175;46.930;9.532;2023-06-14T01:45:14;6.25;;;4.75;;
56267;SDS011;42175;46.930;9.532;2023-06-14T01:47:41;8.98;;;4.93;;
56267;SDS011;42175;46.930;9.532;2023-06-14T01:50:09;5.88;;;4.50;;
56267;SDS011;42175;46.930;9.532;2023-06-14T01:52:36;8.07;;;5.32;;
56267;SDS011;42175;46.930;9.532;2023-06-14T01:55:02;7.03;;;5.38;;
56267;SDS011;42175;46.930;9.532;2023-06-14T01:57:28;6.75;;;4.75;;
56267;SDS011;42175;46.930;9.532;2023-06-14T01:59:54;5.93;;;5.05;;
56267;SDS011;42175;46.930;9.532;2023-06-14T02:02:20;6.88;;;5.22;;
56267;SDS011;42175;46.930;9.532;2023-06-14T02:04:45;5.93;;;4.80;;
56267;SDS011;42175;46.930;9.532;2023-06-14T02:07:12;6.05;;;5.13;;
56267;SDS011;42175;46.930;9.532;2023-06-14T02:09:39;6.80;;;4.90;;
56267;SDS011;42175;46.930;9.532;2023-06-14T02:12:05;8.45;;;5.32;;
56267;SDS011;42175;46.930;9.532;2023-06-14T02:14:31;6.32;;;5.07;;
56267;SDS011;42175;46.930;9.532;2023-06-14T02:16:58;6.57;;;4.97;;
56267;SDS011;42175;46.930;9.532;2023-06-14T02:19:26;8.40;;;5.30;;
56267;SDS011;42175;46.930;9.532;2023-06-14T02:21:52;7.53;;;5.22;;
56267;SDS011;42175;46.930;9.532;2023-06-14T02:24:17;7.05;;;5.32;;
56267;SDS011;42175;46.930;9.532;2023-06-14T02:26:43;6.82;;;5.43;;
56267;SDS011;42175;46.930;9.532;2023-06-14T02:29:09;6.68;;;5.50;;
56267;SDS011;42175;46.930;9.532;2023-06-14T02:31:37;6.53;;;5.10;;
56267;SDS011;42175;46.930;9.532;2023-06-14T02:34:03;5.70;;;4.68;;
56267;SDS011;42175;46.930;9.532;2023-06-14T02:36:29;7.05;;;5.63;;
56267;SDS011;42175;46.930;9.532;2023-06-14T02:38:55;8.90;;;5.35;;
56267;SDS011;42175;46.930;9.532;2023-06-14T02:41:25;7.90;;;4.82;;
56267;SDS011;42175;46.930;9.532;2023-06-14T02:43:52;5.75;;;4.93;;
56267;SDS011;42175;46.930;9.532;2023-06-14T02:46:18;6.53;;;5.50;;
56267;SDS011;42175;46.930;9.532;2023-06-14T02:48:44;7.10;;;5.43;;
56267;SDS011;42175;46.930;9.532;2023-06-14T02:51:10;6.05;;;5.07;;
56267;SDS011;42175;46.930;9.532;2023-06-14T02:53:36;20.98;;;5.43;;
56267;SDS011;42175;46.930;9.532;2023-06-14T02:56:02;7.85;;;5.30;;
56267;SDS011;42175;46.930;9.532;2023-06-14T02:58:29;7.82;;;5.10;;
56267;SDS011;42175;46.930;9.532;2023-06-14T03:00:55;7.93;;;5.53;;
56267;SDS011;42175;46.930;9.532;2023-06-14T03:03:21;9.07;;;5.50;;
56267;SDS011;42175;46.930;9.532;2023-06-14T03:05:49;8.35;;;5.05;;
56267;SDS011;42175;46.930;9.532;2023-06-14T03:08:16;5.93;;;4.93;;
56267;SDS011;42175;46.930;9.532;2023-06-14T03:10:45;8.60;;;4.70;;
56267;SDS011;42175;46.930;9.532;2023-06-14T03:13:11;7.40;;;4.90;;
56267;SDS011;42175;46.930;9.532;2023-06-14T03:15:37;6.45;;;4.82;;
56267;SDS011;42175;46.930;9.532;2023-06-14T03:18:07;7.97;;;4.93;;
56267;SDS011;42175;46.930;9.532;2023-06-14T03:20:34;6.90;;;5.20;;
56267;SDS011;42175;46.930;9.532;2023-06-14T03:23:01;6.43;;;5.10;;
56267;SDS011;42175;46.930;9.532;2023-06-14T03:25:28;5.93;;;4.57;;
56267;SDS011;42175;46.930;9.532;2023-06-14T03:27:54;6.22;;;5.20;;
56267;SDS011;42175;46.930;9.532;2023-06-14T03:30:21;6.72;;;5.20;;
56267;SDS011;42175;46.930;9.532;2023-06-14T03:32:47;10.88;;;5.05;;
56267;SDS011;42175;46.930;9.532;2023-06-14T03:35:12;6.40;;;4.88;;
56267;SDS011;42175;46.930;9.532;2023-06-14T03:37:45;6.72;;;4.80;;
56267;SDS011;42175;46.930;9.532;2023-06-14T03:40:12;7.38;;;4.95;;
56267;SDS011;42175;46.930;9.532;2023-06-14T03:42:40;6.43;;;5.60;;
56267;SDS011;42175;46.930;9.532;2023-06-14T03:45:06;5.63;;;4.88;;
56267;SDS011;42175;46.930;9.532;2023-06-14T03:47:32;6.88;;;5.00;;
56267;SDS011;42175;46.930;9.532;2023-06-14T03:49:59;8.15;;;5.10;;
56267;SDS011;42175;46.930;9.532;2023-06-14T03:52:26;6.95;;;5.55;;
56267;SDS011;42175;46.930;9.532;2023-06-14T03:54:52;6.88;;;5.25;;
56267;SDS011;42175;46.930;9.532;2023-06-14T03:57:18;7.47;;;4.82;;
56267;SDS011;42175;46.930;9.532;2023-06-14T03:59:45;11.27;;;5.20;;
56267;SDS011;42175;46.930;9.532;2023-06-14T04:02:12;8.07;;;5.15;;
56267;SDS011;42175;46.930;9.532;2023-06-14T04:04:40;6.97;;;5.22;;
56267;SDS011;42175;46.930;9.532;2023-06-14T04:07:09;7.97;;;5.25;;
56267;SDS011;42175;46.930;9.532;2023-06-14T04:09:36;5.85;;;5.20;;
56267;SDS011;42175;46.930;9.532;2023-06-14T04:12:03;5.55;;;4.50;;
56267;SDS011;42175;46.930;9.532;2023-06-14T04:14:29;6.05;;;5.00;;
56267;SDS011;42175;46.930;9.532;2023-06-14T04:16:55;7.30;;;5.47;;
56267;SDS011;42175;46.930;9.532;2023-06-14T04:19:21;7.10;;;5.32;;
56267;SDS011;42175;46.930;9.532;2023-06-14T04:21:47;6.65;;;4.97;;
56267;SDS011;42175;46.930;9.532;2023-06-14T04:24:13;8.68;;;6.07;;
56267;SDS011;42175;46.930;9.532;2023-06-14T04:26:41;7.82;;;5.20;;
56267;SDS011;42175;46.930;9.532;2023-06-14T04:29:12;5.70;;;4.70;;
56267;SDS011;42175;46.930;9.532;2023-06-14T04:31:44;9.88;;;5.78;;
56267;SDS011;42175;46.930;9.532;2023-06-14T04:34:11;7.10;;;5.18;;
56267;SDS011;42175;46.930;9.532;2023-06-14T04:36:43;7.07;;;5.40;;
56267;SDS011;42175;46.930;9.532;2023-06-14T04:39:17;7.18;;;5.90;;
56267;SDS011;42175;46.930;9.532;2023-06-14T04:41:43;10.45;;;6.30;;
56267;SDS011;42175;46.930;9.532;2023-06-14T04:44:09;6.95;;;5.32;;
56267;SDS011;42175;46.930;9.532;2023-06-14T04:46:35;10.18;;;6.05;;
56267;SDS011;42175;46.930;9.532;2023-06-14T04:49:11;7.00;;;5.75;;
56267;SDS011;42175;46.930;9.532;2023-06-14T04:51:39;7.00;;;5.38;;
56267;SDS011;42175;46.930;9.532;2023-06-14T04:54:05;6.95;;;5.40;;
56267;SDS011;42175;46.930;9.532;2023-06-14T04:56:35;9.90;;;6.40;;
56267;SDS011;42175;46.930;9.532;2023-06-14T04:59:02;13.43;;;5.68;;
56267;SDS011;42175;46.930;9.532;2023-06-14T05:01:30;10.88;;;5.68;;
56267;SDS011;42175;46.930;9.532;2023-06-14T05:03:57;13.52;;;5.60;;
56267;SDS011;42175;46.930;9.532;2023-06-14T05:06:23;8.95;;;5.63;;
56267;SDS011;42175;46.930;9.532;2023-06-14T05:08:49;9.52;;;6.00;;
56267;SDS011;42175;46.930;9.532;2023-06-14T05:11:15;15.93;;;6.93;;
56267;SDS011;42175;46.930;9.532;2023-06-14T05:13:43;11.13;;;7.22;;
56267;SDS011;42175;46.930;9.532;2023-06-14T05:16:10;13.27;;;6.18;;
56267;SDS011;42175;46.930;9.532;2023-06-14T05:18:36;12.50;;;6.47;;
56267;SDS011;42175;46.930;9.532;2023-06-14T05:21:03;11.63;;;6.93;;
56267;SDS011;42175;46.930;9.532;2023-06-14T05:23:31;11.98;;;6.60;;
56267;SDS011;42175;46.930;9.532;2023-06-14T05:25:58;14.60;;;7.35;;
56267;SDS011;42175;46.930;9.532;2023-06-14T05:28:23;15.35;;;7.68;;
56267;SDS011;42175;46.930;9.532;2023-06-14T05:30:50;16.25;;;6.72;;
56267;SDS011;42175;46.930;9.532;2023-06-14T05:33:16;9.63;;;6.78;;
56267;SDS011;42175;46.930;9.532;2023-06-14T05:35:42;12.32;;;7.10;;
56267;SDS011;42175;46.930;9.532;2023-06-14T05:38:07;12.50;;;6.70;;
56267;SDS011;42175;46.930;9.532;2023-06-14T05:40:33;15.98;;;7.75;;
56267;SDS011;42175;46.930;9.532;2023-06-14T05:42:59;13.23;;;6.38;;
56267;SDS011;42175;46.930;9.532;2023-06-14T05:45:25;14.63;;;7.82;;
56267;SDS011;42175;46.930;9.532;2023-06-14T05:47:50;18.65;;;7.25;;
56267;SDS011;42175;46.930;9.532;2023-06-14T05:50:17;13.35;;;7.55;;
56267;SDS011;42175;46.930;9.532;2023-06-14T05:52:43;20.00;;;7.72;;
56267;SDS011;42175;46.930;9.532;2023-06-14T05:55:08;10.45;;;6.22;;
56267;SDS011;42175;46.930;9.532;2023-06-14T05:57:37;18.30;;;7.35;;
56267;SDS011;42175;46.930;9.532;2023-06-14T06:00:02;11.43;;;7.53;;
56267;SDS011;42175;46.930;9.532;2023-06-14T06:02:42;19.35;;;7.25;;
56267;SDS011;42175;46.930;9.532;2023-06-14T06:05:09;21.45;;;8.77;;
56267;SDS011;42175;46.930;9.532;2023-06-14T06:07:36;14.30;;;8.30;;
56267;SDS011;42175;46.930;9.532;2023-06-14T06:10:02;17.83;;;8.15;;
56267;SDS011;42175;46.930;9.532;2023-06-14T06:12:29;15.13;;;9.27;;
56267;SDS011;42175;46.930;9.532;2023-06-14T06:14:55;20.85;;;9.60;;
56267;SDS011;42175;46.930;9.532;2023-06-14T06:17:21;20.33;;;8.15;;
56267;SDS011;42175;46.930;9.532;2023-06-14T06:19:47;12.32;;;7.40;;
56267;SDS011;42175;46.930;9.532;2023-06-14T06:22:13;17.73;;;8.35;;
56267;SDS011;42175;46.930;9.532;2023-06-14T06:24:38;15.68;;;9.00;;
56267;SDS011;42175;46.930;9.532;2023-06-14T06:27:04;17.52;;;7.80;;
56267;SDS011;42175;46.930;9.532;2023-06-14T06:29:33;17.08;;;8.20;;
56267;SDS011;42175;46.930;9.532;2023-06-14T06:31:59;13.75;;;7.40;;
56267;SDS011;42175;46.930;9.532;2023-06-14T06:34:24;13.52;;;7.88;;
56267;SDS011;42175;46.930;9.532;2023-06-14T06:36:50;11.90;;;6.88;;
56267;SDS011;42175;46.930;9.532;2023-06-14T06:39:16;11.82;;;7.85;;
56267;SDS011;42175;46.930;9.532;2023-06-14T06:41:42;18.27;;;7.97;;
56267;SDS011;42175;46.930;9.532;2023-06-14T06:44:07;15.35;;;7.80;;
56267;SDS011;42175;46.930;9.532;2023-06-14T06:46:35;19.55;;;8.70;;
56267;SDS011;42175;46.930;9.532;2023-06-14T06:49:05;15.18;;;7.50;;
56267;SDS011;42175;46.930;9.532;2023-06-14T06:51:34;14.10;;;7.57;;
56267;SDS011;42175;46.930;9.532;2023-06-14T06:54:01;17.45;;;8.63;;
56267;SDS011;42175;46.930;9.532;2023-06-14T06:56:27;15.18;;;7.45;;
56267;SDS011;42175;46.930;9.532;2023-06-14T06:58:53;11.38;;;6.78;;
56267;SDS011;42175;46.930;9.532;2023-06-14T07:01:18;15.27;;;8.60;;
56267;SDS011;42175;46.930;9.532;2023-06-14T07:03:45;13.98;;;6.95;;
56267;SDS011;42175;46.930;9.532;2023-06-14T07:06:11;9.77;;;6.93;;
56267;SDS011;42175;46.930;9.532;2023-06-14T07:08:37;11.65;;;7.60;;
56267;SDS011;42175;46.930;9.532;2023-06-14T07:11:03;13.32;;;7.30;;
56267;SDS011;42175;46.930;9.532;2023-06-14T07:13:30;9.57;;;6.93;;
56267;SDS011;42175;46.930;9.532;2023-06-14T07:15:58;12.48;;;8.10;;
56267;SDS011;42175;46.930;9.532;2023-06-14T07:18:25;15.25;;;7.22;;
56267;SDS011;42175;46.930;9.532;2023-06-14T07:20:51;12.23;;;6.97;;
56267;SDS011;42175;46.930;9.532;2023-06-14T07:23:19;11.90;;;6.07;;
56267;SDS011;42175;46.930;9.532;2023-06-14T07:25:45;8.45;;;6.28;;
56267;SDS011;42175;46.930;9.532;2023-06-14T07:28:11;13.30;;;7.38;;
56267;SDS011;42175;46.930;9.532;2023-06-14T07:30:37;12.60;;;7.43;;
56267;SDS011;42175;46.930;9.532;2023-06-14T07:33:02;12.38;;;6.60;;
56267;SDS011;42175;46.930;9.532;2023-06-14T07:35:28;13.10;;;6.78;;
56267;SDS011;42175;46.930;9.532;2023-06-14T07:37:54;13.85;;;6.88;;
56267;SDS011;42175;46.930;9.532;2023-06-14T07:40:20;13.95;;;7.13;;
56267;SDS011;42175;46.930;9.532;2023-06-14T07:42:45;15.73;;;7.65;;
56267;SDS011;42175;46.930;9.532;2023-06-14T07:45:12;12.77;;;7.22;;
56267;SDS011;42175;46.930;9.532;2023-06-14T07:47:39;14.70;;;6.82;;
56267;SDS011;42175;46.930;9.532;2023-06-14T07:50:05;12.88;;;6.63;;
56267;SDS011;42175;46.930;9.532;2023-06-14T07:52:31;11.45;;;6.85;;
56267;SDS011;42175;46.930;9.532;2023-06-14T07:54:56;10.23;;;6.50;;
56267;SDS011;42175;46.930;9.532;2023-06-14T07:57:23;9.60;;;7.13;;
56267;SDS011;42175;46.930;9.532;2023-06-14T07:59:49;17.73;;;6.63;;
56267;SDS011;42175;46.930;9.532;2023-06-14T08:02:15;11.00;;;6.50;;
56267;SDS011;42175;46.930;9.532;2023-06-14T08:04:41;13.23;;;7.05;;
56267;SDS011;42175;46.930;9.532;2023-06-14T08:07:07;11.40;;;6.15;;
56267;SDS011;42175;46.930;9.532;2023-06-14T08:09:33;10.20;;;6.47;;
56267;SDS011;42175;46.930;9.532;2023-06-14T08:12:02;19.70;;;7.43;;
56267;SDS011;42175;46.930;9.532;2023-06-14T08:14:32;11.30;;;6.30;;
56267;SDS011;42175;46.930;9.532;2023-06-14T08:16:58;12.30;;;6.78;;
56267;SDS011;42175;46.930;9.532;2023-06-14T08:19:25;10.50;;;6.07;;
56267;SDS011;42175;46.930;9.532;2023-06-14T08:21:50;15.10;;;8.10;;
56267;SDS011;42175;46.930;9.532;2023-06-14T08:24:16;12.18;;;6.60;;
56267;SDS011;42175;46.930;9.532;2023-06-14T08:26:43;15.25;;;7.00;;
56267;SDS011;42175;46.930;9.532;2023-06-14T08:29:09;15.27;;;7.78;;
56267;SDS011;42175;46.930;9.532;2023-06-14T08:31:35;7.97;;;6.05;;
56267;SDS011;42175;46.930;9.532;2023-06-14T08:34:01;10.35;;;6.45;;
56267;SDS011;42175;46.930;9.532;2023-06-14T08:36:26;8.18;;;6.82;;
56267;SDS011;42175;46.930;9.532;2023-06-14T08:38:52;13.40;;;7.32;;
56267;SDS011;42175;46.930;9.532;2023-06-14T08:41:20;8.30;;;6.50;;
56267;SDS011;42175;46.930;9.532;2023-06-14T08:43:50;11.32;;;6.53;;
56267;SDS011;42175;46.930;9.532;2023-06-14T08:46:17;12.65;;;7.10;;
56267;SDS011;42175;46.930;9.532;2023-06-14T08:48:51;10.85;;;6.90;;
56267;SDS011;42175;46.930;9.532;2023-06-14T08:51:18;10.70;;;7.03;;
56267;SDS011;42175;46.930;9.532;2023-06-14T08:53:48;13.93;;;6.25;;
56267;SDS011;42175;46.930;9.532;2023-06-14T08:56:22;13.73;;;7.47;;
56267;SDS011;42175;46.930;9.532;2023-06-14T08:58:53;12.43;;;6.47;;
56267;SDS011;42175;46.930;9.532;2023-06-14T09:01:19;12.90;;;7.18;;
56267;SDS011;42175;46.930;9.532;2023-06-14T09:03:47;10.65;;;6.68;;
56267;SDS011;42175;46.930;9.532;2023-06-14T09:06:14;12.05;;;6.97;;
56267;SDS011;42175;46.930;9.532;2023-06-14T09:08:44;15.15;;;6.82;;
56267;SDS011;42175;46.930;9.532;2023-06-14T09:11:11;12.60;;;6.63;;
56267;SDS011;42175;46.930;9.532;2023-06-14T09:13:38;12.00;;;6.80;;
56267;SDS011;42175;46.930;9.532;2023-06-14T09:16:05;11.77;;;6.85;;
56267;SDS011;42175;46.930;9.532;2023-06-14T09:18:40;14.10;;;7.45;;
56267;SDS011;42175;46.930;9.532;2023-06-14T09:21:09;11.90;;;7.15;;
56267;SDS011;42175;46.930;9.532;2023-06-14T09:23:44;11.55;;;6.43;;
56267;SDS011;42175;46.930;9.532;2023-06-14T09:26:11;11.60;;;6.72;;
56267;SDS011;42175;46.930;9.532;2023-06-14T09:28:42;10.70;;;7.53;;
56267;SDS011;42175;46.930;9.532;2023-06-14T09:31:14;15.82;;;7.22;;
56267;SDS011;42175;46.930;9.532;2023-06-14T09:33:41;9.45;;;6.82;;
56267;SDS011;42175;46.930;9.532;2023-06-14T09:36:16;14.18;;;6.30;;
56267;SDS011;42175;46.930;9.532;2023-06-14T09:38:52;11.95;;;6.80;;
56267;SDS011;42175;46.930;9.532;2023-06-14T09:41:19;11.40;;;6.45;;
56267;SDS011;42175;46.930;9.532;2023-06-14T09:43:46;12.43;;;6.65;;
56267;SDS011;42175;46.930;9.532;2023-06-14T09:46:12;12.43;;;6.93;;
56267;SDS011;42175;46.930;9.532;2023-06-14T09:48:38;11.38;;;6.70;;
56267;SDS011;42175;46.930;9.532;2023-06-14T09:51:09;14.80;;;7.05;;
56267;SDS011;42175;46.930;9.532;2023-06-14T09:53:39;12.38;;;7.00;;
56267;SDS011;42175;46.930;9.532;2023-06-14T09:56:07;17.02;;;6.25;;
56267;SDS011;42175;46.930;9.532;2023-06-14T09:58:35;12.57;;;6.20;;
56267;SDS011;42175;46.930;9.532;2023-06-14T10:01:04;11.98;;;6.90;;
56267;SDS011;42175;46.930;9.532;2023-06-14T10:03:33;14.95;;;7.38;;
56267;SDS011;42175;46.930;9.532;2023-06-14T10:06:02;12.27;;;6.57;;
56267;SDS011;42175;46.930;9.532;2023-06-14T10:08:30;9.93;;;6.55;;
56267;SDS011;42175;46.930;9.532;2023-06-14T10:10:58;15.57;;;7.25;;
56267;SDS011;42175;46.930;9.532;2023-06-14T10:13:25;9.63;;;7.10;;
56267;SDS011;42175;46.930;9.532;2023-06-14T10:24:03;14.40;;;7.10;;
56267;SDS011;42175;46.930;9.532;2023-06-14T10:26:31;17.90;;;6.47;;
56267;SDS011;42175;46.930;9.532;2023-06-14T10:29:01;14.13;;;6.45;;
56267;SDS011;42175;46.930;9.532;2023-06-14T10:31:39;10.65;;;6.57;;
56267;SDS011;42175;46.930;9.532;2023-06-14T10:34:08;10.48;;;6.85;;
56267;SDS011;42175;46.930;9.532;2023-06-14T10:36:35;12.10;;;6.13;;
56267;SDS011;42175;46.930;9.532;2023-06-14T10:39:04;8.50;;;6.22;;
56267;SDS011;42175;46.930;9.532;2023-06-14T10:41:37;13.10;;;6.40;;
56267;SDS011;42175;46.930;9.532;2023-06-14T10:46:39;13.70;;;6.75;;
56267;SDS011;42175;46.930;9.532;2023-06-14T10:49:05;13.93;;;6.55;;
56267;SDS011;42175;46.930;9.532;2023-06-14T10:51:38;13.35;;;7.05;;
56267;SDS011;42175;46.930;9.532;2023-06-14T10:54:11;11.30;;;6.93;;
56267;SDS011;42175;46.930;9.532;2023-06-14T10:56:38;11.05;;;6.53;;
56267;SDS011;42175;46.930;9.532;2023-06-14T10:59:14;9.35;;;6.45;;
56267;SDS011;42175;46.930;9.532;2023-06-14T11:04:15;12.73;;;7.05;;
56267;SDS011;42175;46.930;9.532;2023-06-14T11:06:49;18.95;;;7.30;;
56267;SDS011;42175;46.930;9.532;2023-06-14T11:09:34;17.00;;;6.53;;
56267;SDS011;42175;46.930;9.532;2023-06-14T11:12:31;9.82;;;6.00;;
56267;SDS011;42175;46.930;9.532;2023-06-14T11:14:58;10.40;;;5.93;;
56267;SDS011;42175;46.930;9.532;2023-06-14T11:17:24;12.35;;;5.80;;
56267;SDS011;42175;46.930;9.532;2023-06-14T11:20:06;28.08;;;7.00;;
56267;SDS011;42175;46.930;9.532;2023-06-14T11:22:38;17.05;;;6.80;;
56267;SDS011;42175;46.930;9.532;2023-06-14T11:25:08;18.53;;;6.53;;
56267;SDS011;42175;46.930;9.532;2023-06-14T11:27:35;8.98;;;6.43;;
56267;SDS011;42175;46.930;9.532;2023-06-14T11:30:00;13.48;;;7.13;;
56267;SDS011;42175;46.930;9.532;2023-06-14T11:32:27;18.08;;;7.57;;
56267;SDS011;42175;46.930;9.532;2023-06-14T11:34:52;14.02;;;6.25;;
56267;SDS011;42175;46.930;9.532;2023-06-14T11:37:18;13.82;;;6.78;;
56267;SDS011;42175;46.930;9.532;2023-06-14T11:39:45;9.10;;;6.93;;
56267;SDS011;42175;46.930;9.532;2023-06-14T11:42:17;10.82;;;6.63;;
56267;SDS011;42175;46.930;9.532;2023-06-14T11:44:45;11.27;;;6.75;;
56267;SDS011;42175;46.930;9.532;2023-06-14T11:47:12;11.27;;;6.60;;
56267;SDS011;42175;46.930;9.532;2023-06-14T11:49:38;13.25;;;7.82;;
56267;SDS011;42175;46.930;9.532;2023-06-14T11:52:04;11.05;;;7.22;;
56267;SDS011;42175;46.930;9.532;2023-06-14T11:54:31;12.30;;;7.45;;
56267;SDS011;42175;46.930;9.532;2023-06-14T11:56:58;23.08;;;8.18;;
56267;SDS011;42175;46.930;9.532;2023-06-14T11:59:24;15.80;;;8.55;;
56267;SDS011;42175;46.930;9.532;2023-06-14T12:01:52;17.73;;;7.78;;
56267;SDS011;42175;46.930;9.532;2023-06-14T12:04:28;15.00;;;7.25;;
56267;SDS011;42175;46.930;9.532;2023-06-14T12:06:55;14.27;;;7.05;;
56267;SDS011;42175;46.930;9.532;2023-06-14T12:09:23;13.45;;;7.50;;
56267;SDS011;42175;46.930;9.532;2023-06-14T12:11:51;11.30;;;6.93;;
56267;SDS011;42175;46.930;9.532;2023-06-14T12:14:32;14.52;;;6.28;;
56267;SDS011;42175;46.930;9.532;2023-06-14T12:17:07;16.17;;;7.45;;
56267;SDS011;42175;46.930;9.532;2023-06-14T12:19:33;11.95;;;6.97;;
56267;SDS011;42175;46.930;9.532;2023-06-14T12:22:06;15.27;;;6.60;;
56267;SDS011;42175;46.930;9.532;2023-06-14T12:24:34;15.82;;;6.60;;
56267;SDS011;42175;46.930;9.532;2023-06-14T12:27:00;15.68;;;7.55;;
56267;SDS011;42175;46.930;9.532;2023-06-14T12:29:32;10.93;;;7.13;;
56267;SDS011;42175;46.930;9.532;2023-06-14T12:31:57;12.68;;;6.72;;
56267;SDS011;42175;46.930;9.532;2023-06-14T12:34:23;9.65;;;6.32;;
56267;SDS011;42175;46.930;9.532;2023-06-14T12:36:53;11.90;;;6.53;;
56267;SDS011;42175;46.930;9.532;2023-06-14T12:39:19;13.88;;;7.05;;
56267;SDS011;42175;46.930;9.532;2023-06-14T12:41:46;11.85;;;6.78;;
56267;SDS011;42175;46.930;9.532;2023-06-14T12:44:12;12.95;;;6.55;;
56267;SDS011;42175;46.930;9.532;2023-06-14T12:46:38;12.48;;;6.72;;
56267;SDS011;42175;46.930;9.532;2023-06-14T12:49:05;16.73;;;6.30;;
56267;SDS011;42175;46.930;9.532;2023-06-14T12:51:32;15.15;;;6.60;;
56267;SDS011;42175;46.930;9.532;2023-06-14T12:53:58;14.85;;;6.78;;
56267;SDS011;42175;46.930;9.532;2023-06-14T12:56:24;12.05;;;6.82;;
56267;SDS011;42175;46.930;9.532;2023-06-14T12:58:51;11.32;;;6.90;;
56267;SDS011;42175;46.930;9.532;2023-06-14T13:01:17;16.13;;;6.70;;
56267;SDS011;42175;46.930;9.532;2023-06-14T13:03:43;11.57;;;6.50;;
56267;SDS011;42175;46.930;9.532;2023-06-14T13:06:09;9.35;;;6.00;;
56267;SDS011;42175;46.930;9.532;2023-06-14T13:08:36;9.73;;;6.25;;
56267;SDS011;42175;46.930;9.532;2023-06-14T13:11:02;18.63;;;7.00;;
56267;SDS011;42175;46.930;9.532;2023-06-14T13:13:27;13.52;;;6.70;;
56267;SDS011;42175;46.930;9.532;2023-06-14T13:15:53;11.10;;;5.88;;
56267;SDS011;42175;46.930;9.532;2023-06-14T13:18:19;13.07;;;5.95;;
56267;SDS011;42175;46.930;9.532;2023-06-14T13:20:45;10.20;;;6.18;;
56267;SDS011;42175;46.930;9.532;2023-06-14T13:23:12;12.45;;;7.32;;
56267;SDS011;42175;46.930;9.532;2023-06-14T13:25:38;16.10;;;6.55;;
56267;SDS011;42175;46.930;9.532;2023-06-14T13:28:05;15.13;;;6.05;;
56267;SDS011;42175;46.930;9.532;2023-06-14T13:30:31;19.23;;;6.82;;
56267;SDS011;42175;46.930;9.532;2023-06-14T13:32:58;12.07;;;6.57;;
56267;SDS011;42175;46.930;9.532;2023-06-14T13:35:24;11.02;;;6.63;;
56267;SDS011;42175;46.930;9.532;2023-06-14T13:37:50;8.27;;;6.15;;
56267;SDS011;42175;46.930;9.532;2023-06-14T13:40:16;11.52;;;6.18;;
56267;SDS011;42175;46.930;9.532;2023-06-14T13:42:42;8.85;;;5.95;;
56267;SDS011;42175;46.930;9.532;2023-06-14T13:45:09;11.32;;;6.60;;
56267;SDS011;42175;46.930;9.532;2023-06-14T13:47:37;10.68;;;7.25;;
56267;SDS011;42175;46.930;9.532;2023-06-14T13:50:03;7.75;;;6.07;;
56267;SDS011;42175;46.930;9.532;2023-06-14T13:52:30;8.50;;;6.22;;
56267;SDS011;42175;46.930;9.532;2023-06-14T13:54:56;9.90;;;5.85;;
56267;SDS011;42175;46.930;9.532;2023-06-14T13:57:22;12.10;;;6.55;;
56267;SDS011;42175;46.930;9.532;2023-06-14T13:59:48;6.93;;;6.07;;
56267;SDS011;42175;46.930;9.532;2023-06-14T14:02:14;8.45;;;6.28;;
56267;SDS011;42175;46.930;9.532;2023-06-14T14:04:40;11.70;;;6.82;;
56267;SDS011;42175;46.930;9.532;2023-06-14T14:07:07;10.35;;;5.93;;
56267;SDS011;42175;46.930;9.532;2023-06-14T14:09:33;9.30;;;6.32;;
56267;SDS011;42175;46.930;9.532;2023-06-14T14:12:00;10.30;;;6.45;;
56267;SDS011;42175;46.930;9.532;2023-06-14T14:14:27;10.80;;;6.03;;
56267;SDS011;42175;46.930;9.532;2023-06-14T14:16:53;8.30;;;5.78;;
56267;SDS011;42175;46.930;9.532;2023-06-14T14:19:20;13.15;;;6.10;;
56267;SDS011;42175;46.930;9.532;2023-06-14T14:21:47;10.25;;;5.47;;
56267;SDS011;42175;46.930;9.532;2023-06-14T14:24:13;10.02;;;6.45;;
56267;SDS011;42175;46.930;9.532;2023-06-14T14:26:38;8.20;;;5.97;;
56267;SDS011;42175;46.930;9.532;2023-06-14T14:29:05;7.70;;;5.93;;
56267;SDS011;42175;46.930;9.532;2023-06-14T14:31:31;7.88;;;5.57;;
56267;SDS011;42175;46.930;9.532;2023-06-14T14:33:57;7.95;;;5.93;;
56267;SDS011;42175;46.930;9.532;2023-06-14T14:36:23;9.40;;;5.85;;
56267;SDS011;42175;46.930;9.532;2023-06-14T14:38:48;7.70;;;5.97;;
56267;SDS011;42175;46.930;9.532;2023-06-14T14:41:16;14.13;;;6.55;;
56267;SDS011;42175;46.930;9.532;2023-06-14T14:43:42;16.52;;;6.38;;
56267;SDS011;42175;46.930;9.532;2023-06-14T14:46:08;9.98;;;6.20;;
56267;SDS011;42175;46.930;9.532;2023-06-14T14:48:33;19.67;;;6.57;;
56267;SDS011;42175;46.930;9.532;2023-06-14T14:50:59;7.90;;;6.03;;
56267;SDS011;42175;46.930;9.532;2023-06-14T14:53:25;13.43;;;6.90;;
56267;SDS011;42175;46.930;9.532;2023-06-14T14:55:50;29.30;;;9.88;;
56267;SDS011;42175;46.930;9.532;2023-06-14T14:58:16;41.15;;;27.08;;
56267;SDS011;42175;46.930;9.532;2023-06-14T15:00:46;22.23;;;12.23;;
56267;SDS011;42175;46.930;9.532;2023-06-14T15:03:13;30.42;;;18.40;;
56267;SDS011;42175;46.930;9.532;2023-06-14T15:05:39;32.10;;;20.17;;